Time;durP1;ratioP1;P1;durP2;ratioP2;P2;SDS_P1;SDS_P2;PMS_P1;PMS_P2;Temp;Humidity;BMP_temperature;BMP_pressure;BME280_temperature;BME280_humidity;BME280_pressure;Samples;Min_cycle;Max_cycle;Signal;HPM_P1;HPM_P2
2024/03/01 00:01:48;;;;;;;5.93;3.10;;;;;;;11.62;100.00;97588.19;4962909;28;20046;-95
2024/03/01 00:04:23;;;;;;;7.40;2.95;;;;;;;11.63;100.00;97590.78;4986667;28;20093;-96
2024/03/01 00:06:59;;;;;;;6.20;3.05;;;;;;;11.71;100.00;97590.41;4983515;28;20058;-96
2024/03/01 00:09:29;;;;;;;7.93;2.97;;;;;;;11.77;100.00;97595.41;4962488;28;20074;-96
2024/03/01 00:12:01;;;;;;;7.03;2.88;;;;;;;11.70;100.00;97600.19;4974398;28;20034;-96
2024/03/01 00:14:28;;;;;;;6.90;3.10;;;;;;;11.21;100.00;97511.28;4982975;28;20050;-96
2024/03/01 00:16:55;;;;;;;3.60;2.13;;;;;;;11.77;100.00;97592.75;4984809;28;20031;-96
2024/03/01 00:19:22;;;;;;;4.93;2.65;;;;;;;11.70;100.00;97592.19;4984419;28;20043;-96
2024/03/01 00:21:53;;;;;;;7.38;2.90;;;;;;;11.34;100.00;97520.34;4975533;28;20051;-96
2024/03/01 00:24:22;;;;;;;4.78;2.22;;;;;;;11.67;100.00;97589.69;4961919;28;20055;-96
2024/03/01 00:26:50;;;;;;;6.90;2.25;;;;;;;11.37;100.00;97527.34;4962213;28;20045;-96
2024/03/01 00:29:19;;;;;;;7.28;2.15;;;;;;;11.50;100.00;97552.41;4961383;28;20078;-95
2024/03/01 00:31:45;;;;;;;5.43;2.05;;;;;;;11.58;100.00;97562.66;4977041;28;20062;-96
2024/03/01 00:34:19;;;;;;;5.78;2.50;;;;;;;11.52;100.00;97555.88;4961373;28;20150;-96
2024/03/01 00:36:50;;;;;;;6.85;2.30;;;;;;;11.77;100.00;97586.56;4962481;28;20142;-96
2024/03/01 00:39:35;;;;;;;6.90;2.38;;;;;;;11.62;100.00;97561.56;4962237;28;20495;-96
2024/03/01 00:42:08;;;;;;;5.88;2.72;;;;;;;11.51;100.00;97581.63;4961627;28;20079;-96
2024/03/01 00:44:37;;;;;;;5.65;2.15;;;;;;;11.37;100.00;97552.16;4962437;28;20047;-96
2024/03/01 00:47:09;;;;;;;5.85;2.33;;;;;;;11.67;100.00;97576.38;4977523;28;20513;-96
2024/03/01 00:49:48;;;;;;;5.78;2.47;;;;;;;11.66;100.00;97576.47;4938752;29;20063;-95
2024/03/01 00:52:15;;;;;;;;;;;;;;;11.53;100.00;97565.56;4939193;29;20139;-96
2024/03/01 00:54:44;;;;;;;6.35;2.58;;;;;;;11.57;100.00;97566.28;4923646;29;20375;-95
2024/03/01 00:57:21;;;;;;;5.45;2.53;;;;;;;11.55;100.00;97566.34;4940249;29;20074;-96
2024/03/01 00:59:57;;;;;;;6.35;2.45;;;;;;;11.59;100.00;97565.25;4928976;29;20138;-95
2024/03/01 01:02:37;;;;;;;5.68;2.80;;;;;;;11.55;100.00;97561.03;4957907;29;20110;-96
2024/03/01 01:05:33;;;;;;;6.80;2.55;;;;;;;11.42;100.00;97530.63;4940509;29;20059;-96
2024/03/01 01:08:04;;;;;;;4.93;2.28;;;;;;;11.19;100.00;97484.75;4940652;29;20491;-96
2024/03/01 01:11:08;;;;;;;7.05;2.53;;;;;;;11.30;100.00;97495.72;4941364;29;20514;-96
2024/03/01 01:14:16;;;;;;;;;;;;;;;;;;;;;
2024/03/01 01:17:18;;;;;;;9.80;2.60;;;;;;;11.31;100.00;97476.13;4918031;29;20044;-96
2024/03/01 01:20:06;;;;;;;6.80;2.90;;;;;;;11.26;100.00;97467.53;4923441;29;20056;-96
2024/03/01 01:23:02;;;;;;;6.40;2.63;;;;;;;11.22;100.00;97465.97;4912787;29;20135;-96
2024/03/01 01:25:51;;;;;;;6.85;2.80;;;;;;;11.24;100.00;97461.44;4909615;29;20048;-96
2024/03/01 01:36:05;;;;;;;6.20;3.20;;;;;;;11.68;100.00;97526.66;4885649;29;20048;-96
2024/03/01 01:39:53;;;;;;;6.07;2.67;;;;;;;11.74;100.00;97523.66;4881561;29;20064;-96
2024/03/01 01:42:57;;;;;;;8.88;3.17;;;;;;;11.65;100.00;97533.00;4867578;29;20080;-96
2024/03/01 01:46:00;;;;;;;6.55;3.17;;;;;;;11.62;100.00;97527.81;4861933;29;20056;-96
2024/03/01 01:49:12;;;;;;;8.35;3.17;;;;;;;11.30;100.00;97468.25;4904075;29;20056;-96
2024/03/01 01:52:56;;;;;;;5.28;2.60;;;;;;;11.66;100.00;97524.06;4914572;29;20048;-96
2024/03/01 01:56:08;;;;;;;;;;;;;;;;;;;;;
2024/03/01 01:59:08;;;;;;;9.05;3.47;;;;;;;11.70;100.00;97514.13;4951701;29;20054;-96
2024/03/01 02:02:23;;;;;;;7.00;3.58;;;;;;;11.68;100.00;97508.84;4935789;29;20039;-94
2024/03/01 02:05:31;;;;;;;10.63;3.42;;;;;;;11.70;100.00;97508.78;4893685;29;20100;-94
2024/03/01 02:08:14;;;;;;;7.13;3.80;;;;;;;11.72;100.00;97512.25;4911330;29;20043;-94
2024/03/01 02:10:43;;;;;;;10.32;3.80;;;;;;;11.51;100.00;97472.47;4937288;29;20476;-92
2024/03/01 02:13:40;;;;;;;7.85;4.18;;;;;;;11.49;100.00;97502.75;4936966;29;20079;-93
2024/03/01 02:16:13;;;;;;;7.55;3.35;;;;;;;11.36;100.00;97501.66;4934051;29;20495;-93
2024/03/01 02:18:47;;;;;;;5.65;3.45;;;;;;;10.89;100.00;97437.47;4936694;29;20406;-93
2024/03/01 02:21:19;;;;;;;6.95;4.05;;;;;;;11.07;100.00;97448.97;4936734;29;20137;-93
2024/03/01 02:24:07;;;;;;;6.35;3.45;;;;;;;11.43;100.00;97487.13;4939892;29;20414;-92
2024/03/01 02:26:33;;;;;;;9.77;4.00;;;;;;;11.18;100.00;97451.09;4940441;29;20044;-91
2024/03/01 02:29:05;;;;;;;8.52;4.13;;;;;;;11.23;100.00;97459.72;4956873;28;20451;-92
2024/03/01 02:31:43;;;;;;;8.60;4.55;;;;;;;11.15;100.00;97453.91;4936356;29;20039;-92
2024/03/01 02:34:12;;;;;;;7.53;3.97;;;;;;;11.24;100.00;97480.06;4936937;29;20043;-93
2024/03/01 02:36:41;;;;;;;8.82;4.00;;;;;;;11.09;100.00;97449.75;4936787;29;20043;-92
2024/03/01 02:39:18;;;;;;;8.23;3.92;;;;;;;11.33;100.00;97462.75;4936230;29;20054;-93
2024/03/01 02:41:48;;;;;;;8.60;4.32;;;;;;;10.95;100.00;97399.06;4935717;29;20507;-92
2024/03/01 02:44:19;;;;;;;9.60;4.40;;;;;;;11.07;100.00;97416.19;4954213;29;20050;-93
2024/03/01 02:46:54;;;;;;;8.27;4.40;;;;;;;11.34;100.00;97458.28;4948969;29;20043;-92
2024/03/01 02:49:32;;;;;;;8.15;4.40;;;;;;;11.16;100.00;97433.50;4935132;29;20055;-93
2024/03/01 02:52:05;;;;;;;8.77;4.10;;;;;;;11.44;100.00;97454.22;4953405;28;20043;-93
2024/03/01 02:55:04;;;;;;;8.80;4.47;;;;;;;11.39;100.00;97458.94;4939312;29;20053;-93
2024/03/01 02:57:46;;;;;;;7.60;3.88;;;;;;;10.96;100.00;97387.47;4901528;29;20052;-93
2024/03/01 03:00:31;;;;;;;8.98;4.80;;;;;;;11.02;100.00;97388.97;4907396;29;20080;-92
2024/03/01 03:03:28;;;;;;;11.05;4.35;;;;;;;11.34;100.00;97437.00;4931027;29;20047;-93
2024/03/01 03:06:23;;;;;;;8.70;4.70;;;;;;;11.30;100.00;97409.72;4929264;29;20036;-93
2024/03/01 03:09:09;;;;;;;9.88;4.85;;;;;;;11.05;100.00;97388.81;4912635;29;20062;-94
2024/03/01 03:11:35;;;;;;;10.25;4.65;;;;;;;11.24;100.00;97418.00;4918064;29;20570;-93
2024/03/01 03:14:02;;;;;;;10.57;4.82;;;;;;;11.30;100.00;97431.84;4906901;29;20043;-92
2024/03/01 03:16:28;;;;;;;10.93;5.22;;;;;;;11.52;100.00;97457.38;4900018;29;20044;-92
2024/03/01 03:18:54;;;;;;;12.48;6.40;;;;;;;11.48;100.00;97453.13;4901113;29;20378;-92
2024/03/01 03:21:20;;;;;;;17.25;7.35;;;;;;;11.31;100.00;97430.91;4916981;29;20135;-93
2024/03/01 03:23:46;;;;;;;10.65;6.05;;;;;;;11.13;100.00;97405.25;4900952;29;20480;-91
2024/03/01 03:26:12;;;;;;;11.70;6.13;;;;;;;11.17;100.00;97405.94;4901328;29;20047;-92
2024/03/01 03:28:38;;;;;;;19.38;9.10;;;;;;;11.26;100.00;97427.63;4916535;29;20044;-91
2024/03/01 03:31:05;;;;;;;14.88;7.05;;;;;;;11.47;100.00;97449.63;4915484;29;20036;-92
2024/03/01 03:33:31;;;;;;;14.20;7.38;;;;;;;11.36;100.00;97443.09;4922690;29;20053;-93
2024/03/01 03:35:57;;;;;;;13.48;7.85;;;;;;;11.32;100.00;97447.75;4939338;29;20134;-91
2024/03/01 03:38:23;;;;;;;12.88;7.38;;;;;;;11.37;100.00;97464.34;4956741;29;20853;-91
2024/03/01 03:40:49;;;;;;;13.20;7.93;;;;;;;11.45;100.00;97462.16;4939691;29;20451;-92
2024/03/01 03:43:15;;;;;;;13.32;7.30;;;;;;;11.42;100.00;97464.09;4942457;29;20043;-92
2024/03/01 03:45:40;;;;;;;10.70;6.38;;;;;;;11.44;100.00;97464.88;4937756;29;20043;-93
2024/03/01 03:48:08;;;;;;;13.75;7.50;;;;;;;11.48;100.00;97456.66;4938944;29;20074;-91
2024/03/01 03:50:34;;;;;;;16.15;8.70;;;;;;;11.31;100.00;97438.88;4943975;29;20035;-91
2024/03/01 03:52:59;;;;;;;15.73;6.93;;;;;;;11.42;100.00;97456.09;4933414;29;20139;-92
2024/03/01 03:55:28;;;;;;;11.05;6.53;;;;;;;11.43;100.00;97457.84;4939007;29;20094;-92
2024/03/01 03:57:54;;;;;;;12.65;6.75;;;;;;;11.31;100.00;97444.19;4955601;29;20043;-93
2024/03/01 04:00:20;;;;;;;10.48;6.25;;;;;;;11.13;100.00;97412.38;4937223;29;20393;-92
2024/03/01 04:02:46;;;;;;;14.27;7.85;;;;;;;11.44;100.00;97457.75;4954931;28;20083;-92
2024/03/01 04:05:14;;;;;;;9.35;6.30;;;;;;;11.14;100.00;97419.41;4955732;29;20106;-92
2024/03/01 04:07:40;;;;;;;12.25;6.63;;;;;;;11.18;100.00;97410.31;4939427;29;20050;-92
2024/03/01 04:10:06;;;;;;;16.08;6.53;;;;;;;11.39;100.00;97446.47;4939762;29;20043;-92
2024/03/01 04:12:32;;;;;;;11.27;5.65;;;;;;;11.02;100.00;97384.50;4942042;29;20039;-92
2024/03/01 04:14:58;;;;;;;9.20;5.90;;;;;;;10.99;100.00;97391.78;4940108;29;20098;-92
2024/03/01 04:17:28;;;;;;;14.18;5.90;;;;;;;11.37;100.00;97448.38;4936740;29;20040;-92
2024/03/01 04:19:54;;;;;;;9.57;5.50;;;;;;;11.42;100.00;97445.47;4939481;29;20057;-93
2024/03/01 04:22:22;;;;;;;8.93;5.07;;;;;;;11.00;100.00;97382.88;4941324;29;20043;-93
2024/03/01 04:24:48;;;;;;;9.57;5.25;;;;;;;11.13;100.00;97401.72;4939098;29;20062;-92
2024/03/01 04:27:13;;;;;;;10.27;5.32;;;;;;;11.26;100.00;97432.09;4953388;29;20048;-93
2024/03/01 04:29:42;;;;;;;11.80;5.63;;;;;;;11.20;100.00;97417.28;4938894;29;20051;-95
2024/03/01 04:32:08;;;;;;;12.75;7.15;;;;;;;11.06;100.00;97387.84;4938095;29;20040;-93
2024/03/01 04:34:34;;;;;;;12.60;6.05;;;;;;;11.19;100.00;97407.59;4955316;29;20043;-93
2024/03/01 04:37:00;;;;;;;12.45;5.90;;;;;;;11.26;100.00;97424.97;4938408;29;20102;-93
2024/03/01 04:39:28;;;;;;;9.90;5.78;;;;;;;11.34;100.00;97455.63;4954861;29;20554;-94
2024/03/01 04:41:55;;;;;;;9.65;6.38;;;;;;;11.18;100.00;97423.63;4939323;29;20058;-93
2024/03/01 04:44:20;;;;;;;9.77;5.75;;;;;;;11.10;100.00;97426.66;4955410;29;20515;-94
2024/03/01 04:46:47;;;;;;;12.02;5.63;;;;;;;11.21;100.00;97445.63;4943276;29;20496;-94
2024/03/01 04:49:13;;;;;;;11.20;4.55;;;;;;;11.26;100.00;97446.25;4938450;29;20062;-92
2024/03/01 04:51:38;;;;;;;10.02;5.75;;;;;;;11.01;100.00;97400.53;4939007;29;20480;-94
2024/03/01 04:54:04;;;;;;;12.35;5.63;;;;;;;11.34;100.00;97439.66;4938614;29;20125;-94
2024/03/01 04:56:32;;;;;;;11.60;5.97;;;;;;;11.28;100.00;97431.06;4955561;29;20040;-94
2024/03/01 04:58:58;;;;;;;13.13;5.95;;;;;;;11.03;100.00;97412.81;4939018;29;20039;-93
2024/03/01 05:01:24;;;;;;;8.60;5.30;;;;;;;11.18;100.00;97434.28;4936883;29;20142;-95
2024/03/01 05:03:50;;;;;;;10.85;5.57;;;;;;;11.05;100.00;97418.06;4937558;29;20142;-93
2024/03/01 05:06:16;;;;;;;13.18;5.75;;;;;;;11.26;100.00;97462.22;4938680;29;20109;-94
2024/03/01 05:08:42;;;;;;;11.10;6.20;;;;;;;11.10;100.00;97439.97;4937521;29;20047;-94
2024/03/01 05:11:07;;;;;;;15.65;6.05;;;;;;;11.26;100.00;97456.91;4937090;29;20047;-93
2024/03/01 05:13:35;;;;;;;11.95;6.68;;;;;;;11.34;100.00;97463.63;4938479;29;20192;-94
2024/03/01 05:16:01;;;;;;;15.23;6.13;;;;;;;11.31;100.00;97462.84;4940679;29;20047;-94
2024/03/01 05:18:27;;;;;;;14.10;6.18;;;;;;;11.33;100.00;97475.22;4935919;29;20591;-95
2024/03/01 05:20:53;;;;;;;12.85;6.65;;;;;;;11.20;100.00;97446.56;4938979;29;20051;-94
2024/03/01 05:23:21;;;;;;;14.15;6.10;;;;;;;11.25;100.00;97473.78;4939144;29;20066;-95
2024/03/01 05:25:47;;;;;;;9.32;5.82;;;;;;;11.21;100.00;97479.34;4937971;29;20043;-96
2024/03/01 05:28:13;;;;;;;12.45;6.70;;;;;;;11.24;100.00;97476.53;4937019;29;20046;-95
2024/03/01 05:30:41;;;;;;;11.82;5.88;;;;;;;11.27;100.00;97479.03;4937554;29;20043;-94
2024/03/01 05:33:07;;;;;;;10.18;6.28;;;;;;;11.19;100.00;97466.13;4953623;29;20050;-95
2024/03/01 05:35:35;;;;;;;13.63;6.53;;;;;;;11.14;100.00;97468.16;4941632;29;20079;-94
2024/03/01 05:38:01;;;;;;;16.75;7.88;;;;;;;11.25;100.00;97464.94;4947529;29;20051;-94
2024/03/01 05:40:27;;;;;;;14.25;6.85;;;;;;;11.14;100.00;97454.00;4940495;29;20057;-94
2024/03/01 05:42:53;;;;;;;13.77;7.25;;;;;;;10.89;100.00;97399.38;4943170;29;20067;-94
2024/03/01 05:45:20;;;;;;;20.35;7.45;;;;;;;11.25;100.00;97471.13;4953463;28;20086;-93
2024/03/01 05:47:48;;;;;;;15.05;8.48;;;;;;;11.31;100.00;97472.63;4960854;28;20067;-92
2024/03/01 05:50:15;;;;;;;17.92;8.20;;;;;;;11.27;100.00;97471.91;4962251;28;20023;-95
2024/03/01 05:52:43;;;;;;;14.45;7.32;;;;;;;11.01;100.00;97443.94;4973241;28;20038;-94
2024/03/01 05:55:09;;;;;;;16.00;7.40;;;;;;;11.21;100.00;97482.00;4963440;28;20032;-95
2024/03/01 05:57:36;;;;;;;16.20;8.27;;;;;;;10.81;100.00;97421.00;4963088;28;20098;-94
2024/03/01 06:00:17;;;;;;;16.83;7.70;;;;;;;11.22;100.00;97481.09;4957002;28;20032;-92
2024/03/01 06:02:44;;;;;;;12.93;7.10;;;;;;;10.79;100.00;97414.91;4963227;28;20035;-96
2024/03/01 06:05:11;;;;;;;16.33;7.95;;;;;;;10.91;100.00;97450.69;4960208;28;20043;-95
2024/03/01 06:07:37;;;;;;;19.90;8.40;;;;;;;10.71;100.00;97432.19;4945635;29;20039;-95
2024/03/01 06:10:04;;;;;;;16.33;7.78;;;;;;;10.82;100.00;97453.78;4961706;29;20051;-96
2024/03/01 06:12:30;;;;;;;20.00;8.63;;;;;;;11.04;100.00;97494.38;4944325;29;20098;-96
2024/03/01 06:14:56;;;;;;;14.43;7.93;;;;;;;10.61;100.00;97431.78;4946799;29;20043;-96
2024/03/01 06:25:31;;;;;;;18.63;7.40;;;;;;;11.01;100.00;97526.41;5240997;23;20039;-95
2024/03/01 06:28:07;;;;;;;16.23;7.35;;;;;;;11.06;100.00;97531.50;4996886;23;20089;-95
2024/03/01 06:30:54;;;;;;;17.00;8.48;;;;;;;10.71;100.00;97469.41;4960471;29;20062;-94
2024/03/01 06:33:46;;;;;;;15.48;7.50;;;;;;;11.12;100.00;97512.59;4957749;28;20150;-96
2024/03/01 06:36:27;;;;;;;16.30;7.65;;;;;;;11.17;100.00;97518.56;4975233;28;20111;-94
2024/03/01 06:39:06;;;;;;;12.80;6.68;;;;;;;11.23;100.00;97528.91;4953759;29;20051;-95
2024/03/01 06:41:34;;;;;;;18.73;7.50;;;;;;;10.88;100.00;97466.78;4949443;29;20506;-95
2024/03/01 06:44:00;;;;;;;15.25;7.72;;;;;;;10.98;100.00;97469.88;4959836;28;20047;-95
2024/03/01 06:46:27;;;;;;;13.38;7.25;;;;;;;11.29;100.00;97536.56;4946167;29;20142;-95
2024/03/01 06:48:53;;;;;;;15.27;6.82;;;;;;;11.26;100.00;97535.88;4942399;29;20043;-94
2024/03/01 06:51:19;;;;;;;14.18;6.30;;;;;;;11.37;100.00;97544.19;4963589;28;20039;-96
2024/03/01 06:53:45;;;;;;;10.27;5.75;;;;;;;11.28;100.00;97534.84;4944340;29;20047;-96
2024/03/01 06:56:13;;;;;;;15.45;5.43;;;;;;;11.38;100.00;97540.56;4941903;29;20070;-95
2024/03/01 06:58:41;;;;;;;12.15;5.90;;;;;;;11.29;100.00;97517.06;4940471;29;20043;-96
2024/03/01 07:01:07;;;;;;;12.68;5.43;;;;;;;11.35;100.00;97547.84;4937942;29;20077;-96
2024/03/01 07:03:33;;;;;;;13.23;5.68;;;;;;;11.26;100.00;97519.91;4942117;29;20066;-95
2024/03/01 07:06:00;;;;;;;11.20;4.47;;;;;;;11.30;100.00;97537.44;4942707;29;20039;-95
2024/03/01 07:08:27;;;;;;;10.70;4.97;;;;;;;11.40;100.00;97549.34;4942107;29;20562;-95
2024/03/01 07:10:54;;;;;;;13.07;4.82;;;;;;;11.47;100.00;97560.53;4943165;29;20119;-94
2024/03/01 07:13:21;;;;;;;9.82;4.97;;;;;;;11.31;100.00;97553.31;4947927;29;20051;-95
2024/03/01 07:15:48;;;;;;;8.38;4.55;;;;;;;10.96;100.00;97479.72;4943732;28;20043;-96
2024/03/01 07:18:14;;;;;;;11.35;4.63;;;;;;;11.22;100.00;97527.16;4945701;29;20154;-96
2024/03/01 07:20:42;;;;;;;13.00;5.07;;;;;;;11.12;100.00;97509.94;4949919;28;20030;-96
2024/03/01 07:23:15;;;;;;;10.88;4.50;;;;;;;11.00;100.00;97489.28;4958214;29;20124;-96
2024/03/01 07:25:42;;;;;;;12.18;5.32;;;;;;;11.13;100.00;97500.19;4951934;29;20051;-95
2024/03/01 07:28:08;;;;;;;10.27;5.32;;;;;;;11.19;100.00;97508.72;4948415;29;20063;-96
2024/03/01 07:30:35;;;;;;;8.63;4.78;;;;;;;11.33;100.00;97544.41;4942840;29;20050;-96
2024/03/01 07:33:03;;;;;;;10.13;4.15;;;;;;;11.34;100.00;97527.50;4941763;29;20051;-96
2024/03/01 07:35:29;;;;;;;12.48;4.60;;;;;;;11.43;100.00;97549.19;4943384;28;20043;-95
2024/03/01 07:37:55;;;;;;;10.60;4.55;;;;;;;11.67;100.00;97557.75;4941209;29;20054;-96
2024/03/01 07:40:22;;;;;;;9.40;4.70;;;;;;;11.64;100.00;97563.22;4940206;29;20039;-94
2024/03/01 07:42:52;;;;;;;7.25;3.95;;;;;;;11.31;100.00;97505.41;4940782;29;20046;-96
2024/03/01 07:45:18;;;;;;;13.55;4.40;;;;;;;11.70;100.00;97556.72;4961245;28;20547;-96
2024/03/01 07:47:44;;;;;;;8.52;4.30;;;;;;;11.71;100.00;97567.31;4941315;29;20058;-96
2024/03/01 07:50:15;;;;;;;7.63;4.07;;;;;;;11.79;100.00;97566.03;4962345;28;20102;-96
2024/03/01 07:52:41;;;;;;;8.32;3.78;;;;;;;11.52;100.00;97495.47;4947684;29;20058;-96
2024/03/01 07:55:11;;;;;;;10.10;3.85;;;;;;;11.60;100.00;97502.22;4971438;28;20075;-96
2024/03/01 07:57:40;;;;;;;9.35;4.03;;;;;;;11.78;100.00;97538.56;4972227;28;20040;-96
2024/03/01 08:00:07;;;;;;;7.93;4.25;;;;;;;11.65;100.00;97497.53;4945799;29;20050;-96
2024/03/01 08:02:45;;;;;;;8.05;3.85;;;;;;;11.89;100.00;97538.03;4946507;29;20043;-96
2024/03/01 08:05:22;;;;;;;11.60;5.13;;;;;;;12.06;100.00;97577.13;4960556;28;20047;-96
2024/03/01 08:08:34;;;;;;;8.30;3.38;;;;;;;11.98;100.00;97556.19;4963221;28;20030;-96
2024/03/01 08:11:54;;;;;;;5.82;3.63;;;;;;;11.65;100.00;97514.34;4957965;28;20031;-95
2024/03/01 10:29:12;;;;;;;11.45;2.80;;;;;;;13.11;100.00;97639.03;5961562;23;20019;31
2024/03/01 11:22:58;;;;;;;11.95;7.95;;;;;;;13.27;100.00;97615.88;1806017;23;20451;-95
2024/03/01 11:25:56;;;;;;;31.85;23.58;;;;;;;13.19;100.00;97620.78;4927594;29;20492;-96
2024/03/01 11:28:25;;;;;;;5.15;1.77;;;;;;;13.22;100.00;97617.09;4922872;29;20047;-96
2024/03/01 11:31:04;;;;;;;6.20;1.38;;;;;;;13.24;100.00;97616.03;4924310;29;20048;-96
2024/03/01 11:34:11;;;;;;;2.88;1.30;;;;;;;13.23;100.00;97613.44;4928703;28;20028;-96
2024/03/01 11:37:08;;;;;;;4.90;1.60;;;;;;;13.02;100.00;97549.66;5098876;23;20057;-95
2024/03/01 11:48:00;;;;;;;3.63;0.70;;;;;;;13.32;100.00;97616.50;5419671;23;20064;-95
2024/03/01 11:50:52;;;;;;;8.07;1.70;;;;;;;12.98;100.00;97536.59;4925063;29;20033;-95
2024/03/01 11:54:07;;;;;;;5.60;1.85;;;;;;;13.37;100.00;97616.25;4912587;29;20044;-95
2024/03/01 11:57:18;;;;;;;4.75;1.85;;;;;;;13.53;100.00;97610.88;4924975;29;20028;-95
2024/03/01 12:00:18;;;;;;;8.18;1.65;;;;;;;13.58;100.00;97607.97;4914931;29;20044;-94
2024/03/01 12:03:43;;;;;;;7.22;2.15;;;;;;;13.12;100.00;97532.19;4915280;29;20084;-96
2024/03/01 12:06:28;;;;;;;7.47;4.78;;;;;;;13.20;100.00;97534.41;4908537;29;20044;-96
2024/03/01 12:17:32;;;;;;;8.75;2.40;;;;;;;13.58;100.00;97603.47;4924833;29;20049;-94
2024/03/01 12:20:09;;;;;;;;;;;;;;;13.56;100.00;97600.03;4912527;29;20055;-96
2024/03/01 12:23:31;;;;;;;4.10;2.08;;;;;;;13.06;100.00;97527.19;4926315;29;19931;-94
2024/03/01 12:26:05;;;;;;;5.78;2.70;;;;;;;13.12;100.00;97547.34;4909753;29;20044;-94
2024/03/01 12:28:50;;;;;;;9.90;3.90;;;;;;;13.12;100.00;97564.22;4911343;29;20040;-94
2024/03/01 12:31:49;;;;;;;10.20;3.80;;;;;;;13.31;100.00;97609.44;4910133;29;20040;-95
2024/03/01 12:34:41;;;;;;;7.20;3.10;;;;;;;13.22;100.00;97609.94;4916259;29;20056;-95
2024/03/01 12:37:27;;;;;;;5.95;2.20;;;;;;;12.81;100.00;97559.72;4908269;29;20071;-95
2024/03/01 12:40:16;;;;;;;9.13;3.55;;;;;;;12.60;100.00;97537.78;4897936;29;20051;-96
2024/03/01 12:43:09;;;;;;;8.48;3.50;;;;;;;12.72;100.00;97574.44;4903374;29;20079;-94
2024/03/01 12:45:58;;;;;;;12.68;5.32;;;;;;;12.45;100.00;97534.16;4892687;29;20087;-94
2024/03/01 12:48:33;;;;;;;10.85;5.30;;;;;;;12.33;100.00;97533.00;4896806;29;20060;-93
2024/03/01 12:51:12;;;;;;;9.50;3.67;;;;;;;12.60;100.00;97579.56;4895978;29;20077;-93
2024/03/01 12:54:07;;;;;;;11.02;3.80;;;;;;;12.49;100.00;97581.03;4894959;29;20041;-94
2024/03/01 12:56:44;;;;;;;10.73;3.75;;;;;;;12.60;100.00;97620.47;4895076;29;20044;-96
2024/03/01 12:59:31;;;;;;;7.60;3.47;;;;;;;12.60;100.00;97628.47;4893244;29;20041;-95
2024/03/01 13:02:27;;;;;;;9.70;4.00;;;;;;;12.23;100.00;97561.09;4893336;29;20063;-95
2024/03/01 13:05:06;;;;;;;16.10;6.30;;;;;;;12.65;100.00;97622.88;4893701;29;20187;-92
2024/03/01 13:07:34;;;;;;;9.73;5.05;;;;;;;12.62;100.00;97620.34;4905659;29;20032;-91
2024/03/01 13:10:13;;;;;;;10.45;3.50;;;;;;;12.59;100.00;97624.06;4891877;29;20039;-92
2024/03/01 13:12:50;;;;;;;12.57;4.80;;;;;;;12.20;100.00;97561.25;4898413;29;20044;-92
2024/03/01 13:15:21;;;;;;;12.25;6.00;;;;;;;12.22;100.00;97577.16;4891266;29;20124;-92
2024/03/01 13:18:08;;;;;;;13.38;5.88;;;;;;;12.42;100.00;97624.94;4907740;29;20056;-92
2024/03/01 13:20:51;;;;;;;11.25;5.43;;;;;;;12.47;100.00;97620.25;4910007;29;20050;-90
2024/03/01 13:23:34;;;;;;;17.42;8.02;;;;;;;12.03;100.00;97550.63;4895089;29;20146;-91
2024/03/01 13:26:33;;;;;;;7.45;4.30;;;;;;;12.36;100.00;97625.28;4911405;29;20103;-90
2024/03/01 13:29:07;;;;;;;7.85;3.97;;;;;;;12.33;100.00;97625.44;4890593;29;20048;-91
2024/03/01 13:31:43;;;;;;;9.18;3.25;;;;;;;12.01;100.00;97564.00;4898356;29;20044;-91
2024/03/01 13:34:18;;;;;;;10.88;6.35;;;;;;;12.15;100.00;97603.28;4912637;29;20055;-91
2024/03/01 13:37:10;;;;;;;11.13;3.58;;;;;;;11.89;100.00;97541.56;4889585;29;20052;-92
2024/03/01 13:39:45;;;;;;;7.85;3.83;;;;;;;12.09;100.00;97599.13;4895367;29;20528;-92
2024/03/01 13:42:22;;;;;;;8.43;3.67;;;;;;;11.79;100.00;97550.91;4889155;29;20068;-92
2024/03/01 13:44:50;;;;;;;6.35;3.53;;;;;;;12.09;100.00;97606.25;4904118;29;20052;-88
2024/03/01 13:47:18;;;;;;;6.30;3.83;;;;;;;12.08;100.00;97602.75;4891219;29;20091;-89
2024/03/01 13:49:49;;;;;;;5.78;2.22;;;;;;;12.27;100.00;97639.09;4905114;29;20050;-91
2024/03/01 13:52:16;;;;;;;5.85;2.50;;;;;;;12.18;100.00;97613.78;4895989;29;20104;-91
2024/03/01 13:54:43;;;;;;;9.30;2.40;;;;;;;12.03;100.00;97598.59;4907180;29;20109;-90
2024/03/01 13:57:20;;;;;;;4.55;1.50;;;;;;;12.18;100.00;97644.91;4908110;29;20041;-91
2024/03/01 13:59:58;;;;;;;4.03;1.80;;;;;;;12.16;100.00;97644.97;4892263;29;20052;-90
2024/03/01 14:02:27;;;;;;;2.90;1.50;;;;;;;12.15;100.00;97627.28;4915988;29;20043;-90
2024/03/01 14:05:03;;;;;;;2.47;1.50;;;;;;;12.21;100.00;97642.94;4904283;29;20048;-90
2024/03/01 14:07:29;;;;;;;5.10;2.08;;;;;;;12.12;100.00;97612.31;4908849;29;20044;-93
2024/03/01 14:09:57;;;;;;;4.93;2.45;;;;;;;11.94;100.00;97594.59;4902942;29;20047;-92
2024/03/01 14:12:23;;;;;;;7.03;1.70;;;;;;;11.71;100.00;97569.97;4922446;29;20051;-92
2024/03/01 14:14:55;;;;;;;3.58;1.58;;;;;;;12.01;100.00;97635.94;4917782;29;20045;-92
2024/03/01 14:17:28;;;;;;;5.40;2.00;;;;;;;11.84;100.00;97617.25;4893181;29;20044;-92
2024/03/01 14:19:54;;;;;;;3.22;2.05;;;;;;;11.74;100.00;97605.38;4885011;29;20048;-91
2024/03/01 14:22:23;;;;;;;4.07;1.80;;;;;;;12.04;100.00;97643.81;4908092;29;20064;-92
2024/03/01 14:24:51;;;;;;;4.28;1.17;;;;;;;12.05;100.00;97652.66;4895427;29;20040;-91
2024/03/01 14:27:17;;;;;;;3.50;2.25;;;;;;;11.74;100.00;97597.38;4908955;29;20036;-91
2024/03/01 14:29:46;;;;;;;6.40;2.05;;;;;;;12.07;100.00;97659.63;4906300;29;20048;-90
2024/03/01 14:32:14;;;;;;;3.85;2.20;;;;;;;12.10;100.00;97656.81;4891814;29;20051;-91
2024/03/01 14:34:40;;;;;;;3.10;1.98;;;;;;;11.67;100.00;97589.69;4886309;29;20049;-91
2024/03/01 14:37:09;;;;;;;19.50;7.30;;;;;;;12.06;100.00;97660.59;4888084;29;20045;-91
2024/03/01 14:39:40;;;;;;;12.73;5.32;;;;;;;11.78;100.00;97644.25;4909215;29;20048;-91
2024/03/01 14:42:16;;;;;;;4.60;3.05;;;;;;;11.49;100.00;97595.94;4891911;29;20522;-90
2024/03/01 14:44:43;;;;;;;4.32;2.05;;;;;;;11.58;100.00;97635.44;4886698;29;20140;-91
2024/03/01 14:47:12;;;;;;;3.55;1.00;;;;;;;11.80;100.00;97669.84;4885366;29;20067;-90
2024/03/01 14:49:45;;;;;;;5.70;1.42;;;;;;;11.74;100.00;97672.81;4914626;29;20698;-90
2024/03/01 14:52:11;;;;;;;4.68;2.13;;;;;;;11.75;100.00;97676.34;4910696;29;20486;-91
2024/03/01 14:54:51;;;;;;;3.53;2.10;;;;;;;11.63;100.00;97676.00;4913477;29;20044;-90
2024/03/01 14:57:40;;;;;;;5.05;1.13;;;;;;;11.57;100.00;97664.78;4908132;29;20192;-90
2024/03/01 15:00:17;;;;;;;3.75;1.75;;;;;;;11.67;100.00;97688.22;4908014;29;20055;-90
2024/03/01 15:02:52;;;;;;;3.47;1.95;;;;;;;11.14;100.00;97601.19;4909716;29;20065;-91
2024/03/01 15:05:21;;;;;;;3.95;1.48;;;;;;;11.62;100.00;97684.91;4903284;29;20072;-91
2024/03/01 15:07:54;;;;;;;5.78;2.15;;;;;;;11.13;100.00;97619.91;4894760;29;20048;-91
2024/03/01 15:10:23;;;;;;;4.20;2.65;;;;;;;11.58;100.00;97678.03;4908336;29;20091;-88
2024/03/01 15:12:55;;;;;;;3.78;2.20;;;;;;;11.52;100.00;97681.84;4888147;29;20075;-89
2024/03/01 15:15:22;;;;;;;6.10;1.90;;;;;;;11.54;100.00;97675.56;4911660;29;20781;-89
2024/03/01 15:17:58;;;;;;;8.65;4.35;;;;;;;11.53;100.00;97685.38;4911372;29;20115;-88
2024/03/01 15:20:44;;;;;;;7.25;3.55;;;;;;;11.07;100.00;97615.72;4891222;29;20032;-89
2024/03/01 15:23:11;;;;;;;12.50;4.68;;;;;;;11.07;100.00;97605.06;4911163;29;20055;-89
2024/03/01 15:25:37;;;;;;;10.05;4.53;;;;;;;11.50;100.00;97682.88;4912210;29;20048;-89
2024/03/01 15:28:04;;;;;;;5.22;2.88;;;;;;;11.15;100.00;97640.16;4904447;29;20064;-90
2024/03/01 15:30:31;;;;;;;6.47;2.70;;;;;;;11.35;100.00;97695.09;4889316;29;20131;-90
2024/03/01 15:33:04;;;;;;;6.60;2.28;;;;;;;11.37;100.00;97689.72;4895087;29;20048;-90
2024/03/01 15:35:36;;;;;;;4.13;2.10;;;;;;;11.32;100.00;97700.59;4899951;29;20079;-90
2024/03/01 15:38:08;;;;;;;5.05;2.53;;;;;;;11.32;100.00;97700.59;4890248;29;20079;-90
2024/03/01 15:40:38;;;;;;;7.90;2.80;;;;;;;10.91;100.00;97647.50;4915061;29;20047;-90